Time;durP1;ratioP1;P1;durP2;ratioP2;P2;SDS_P1;SDS_P2;PMS_P1;PMS_P2;Temp;Humidity;BMP_temperature;BMP_pressure;BME280_temperature;BME280_humidity;BME280_pressure;Samples;Min_cycle;Max_cycle;Signal;HPM_P1;HPM_P2
2023/05/25 00:00:56;;;;;;;19.00;11.73;;;16.50;99.90;;;;;;5036365;28;20021;-70
2023/05/25 00:03:22;;;;;;;16.23;11.73;;;16.50;99.90;;;;;;5036067;28;20033;-71
2023/05/25 00:05:49;;;;;;;14.15;11.98;;;16.40;99.90;;;;;;5037907;28;20087;-71
2023/05/25 00:08:15;;;;;;;16.23;10.57;;;16.40;99.90;;;;;;5037026;28;20022;-71
2023/05/25 00:10:40;;;;;;;18.33;13.00;;;16.30;99.90;;;;;;5037440;28;20021;-71
2023/05/25 00:13:06;;;;;;;16.83;11.30;;;16.30;99.90;;;;;;5037660;28;20116;-70
2023/05/25 00:15:31;;;;;;;18.40;13.27;;;16.20;99.90;;;;;;5036892;28;20116;-72
2023/05/25 00:17:57;;;;;;;19.77;12.52;;;16.20;99.90;;;;;;5037382;28;20475;-71
2023/05/25 00:20:23;;;;;;;20.60;12.93;;;16.10;99.90;;;;;;5037354;28;20072;-72
2023/05/25 00:22:49;;;;;;;17.90;11.95;;;16.10;99.90;;;;;;5037363;28;20034;-71
2023/05/25 00:25:14;;;;;;;16.75;11.88;;;16.10;99.90;;;;;;5036404;28;20037;-71
2023/05/25 00:27:40;;;;;;;17.52;11.25;;;16.00;99.90;;;;;;5036047;28;20041;-72
2023/05/25 00:30:06;;;;;;;15.85;11.32;;;16.00;99.90;;;;;;5037362;28;20026;-71
2023/05/25 00:32:32;;;;;;;17.25;12.27;;;15.90;99.90;;;;;;5036372;28;20057;-71
2023/05/25 00:34:57;;;;;;;16.33;11.75;;;15.90;99.90;;;;;;5037205;28;20575;-71
2023/05/25 00:37:23;;;;;;;15.82;9.27;;;15.90;99.90;;;;;;5036920;28;20021;-71
2023/05/25 00:39:49;;;;;;;17.33;9.82;;;15.80;99.90;;;;;;5036022;28;20052;-71
2023/05/25 00:42:15;;;;;;;16.42;11.88;;;15.80;99.90;;;;;;5037017;28;20029;-70
2023/05/25 00:44:41;;;;;;;16.13;11.30;;;15.80;99.90;;;;;;5069331;28;20026;-69
2023/05/25 00:47:07;;;;;;;18.95;12.00;;;15.80;99.90;;;;;;5069317;28;20034;-69
2023/05/25 00:49:35;;;;;;;17.52;12.23;;;15.80;99.90;;;;;;5037288;28;20034;-70
2023/05/25 00:52:01;;;;;;;16.05;11.63;;;15.90;99.90;;;;;;5033958;28;20029;-72
2023/05/25 00:54:27;;;;;;;18.00;12.25;;;15.90;99.90;;;;;;5035576;28;20409;-71
2023/05/25 00:57:02;;;;;;;17.15;11.15;;;15.80;99.90;;;;;;5034582;28;20029;-70
2023/05/25 00:59:40;;;;;;;15.90;10.93;;;15.80;99.90;;;;;;5069172;28;20040;-70
2023/05/25 01:02:10;;;;;;;21.33;11.20;;;15.80;99.90;;;;;;5036958;28;20021;-71
2023/05/25 01:04:44;;;;;;;15.70;11.55;;;15.80;99.90;;;;;;5035851;28;20210;-71
2023/05/25 01:07:11;;;;;;;20.08;11.80;;;15.70;99.90;;;;;;5035582;28;20026;-71
2023/05/25 01:09:42;;;;;;;15.20;11.73;;;15.70;99.90;;;;;;5036881;28;20506;-71
2023/05/25 01:12:10;;;;;;;14.00;10.02;;;15.70;99.90;;;;;;5035569;28;20033;-70
2023/05/25 01:14:38;;;;;;;14.88;11.25;;;15.60;99.90;;;;;;5035812;28;20109;-71
2023/05/25 01:17:05;;;;;;;17.30;10.15;;;15.60;99.90;;;;;;5036703;28;20046;-69
2023/05/25 01:19:36;;;;;;;15.15;11.40;;;15.60;99.90;;;;;;5036136;28;20041;-71
2023/05/25 01:22:11;;;;;;;18.65;12.07;;;15.60;99.90;;;;;;5036847;28;20101;-70
2023/05/25 01:24:52;;;;;;;23.30;13.05;;;15.50;99.90;;;;;;5036945;28;20572;-72
2023/05/25 01:27:27;;;;;;;15.93;11.32;;;15.50;99.90;;;;;;5036760;28;20041;-71
2023/05/25 01:29:54;;;;;;;12.52;10.48;;;15.40;99.90;;;;;;5032742;28;20026;-71
2023/05/25 01:32:21;;;;;;;17.02;12.02;;;15.40;99.90;;;;;;5036948;28;20622;-71
2023/05/25 01:34:49;;;;;;;19.75;11.73;;;15.30;99.90;;;;;;5035593;28;20557;-71
2023/05/25 01:37:17;;;;;;;18.08;12.48;;;15.30;99.90;;;;;;5068928;28;20033;-71
2023/05/25 01:39:42;;;;;;;15.68;12.27;;;15.30;99.90;;;;;;5036794;28;20033;-72
2023/05/25 01:42:08;;;;;;;18.10;13.40;;;15.20;99.90;;;;;;5036371;28;20533;-70
2023/05/25 01:44:35;;;;;;;16.67;13.30;;;15.30;99.90;;;;;;5036803;28;20030;-71
2023/05/25 01:47:15;;;;;;;17.73;12.07;;;15.20;99.90;;;;;;5036571;28;20022;-70
2023/05/25 01:50:05;;;;;;;18.15;12.10;;;15.20;99.90;;;;;;5036615;28;20029;-71
2023/05/25 01:52:44;;;;;;;21.77;12.43;;;15.20;99.90;;;;;;5036383;28;20393;-71
2023/05/25 01:55:15;;;;;;;20.60;12.40;;;15.20;99.90;;;;;;5036568;28;20029;-70
2023/05/25 01:57:44;;;;;;;19.10;12.57;;;15.20;99.90;;;;;;5031320;28;20032;-71
2023/05/25 02:00:12;;;;;;;14.82;11.25;;;15.10;99.90;;;;;;5036572;28;20497;-70
2023/05/25 02:02:43;;;;;;;17.70;11.88;;;15.10;99.90;;;;;;5035242;28;20041;-71
2023/05/25 02:05:10;;;;;;;18.50;12.57;;;15.00;99.90;;;;;;5036462;28;20104;-71
2023/05/25 02:07:36;;;;;;;20.05;12.25;;;14.90;99.90;;;;;;5068564;28;20025;-71
2023/05/25 02:10:02;;;;;;;22.05;13.23;;;14.90;99.90;;;;;;5036404;28;20029;-71
2023/05/25 02:12:27;;;;;;;19.45;13.25;;;14.80;99.90;;;;;;5036223;28;20026;-72
2023/05/25 02:14:53;;;;;;;20.55;12.48;;;14.70;99.90;;;;;;5036336;28;20029;-72
2023/05/25 02:17:18;;;;;;;21.33;14.27;;;14.70;99.90;;;;;;5036440;28;20482;-71
2023/05/25 02:19:46;;;;;;;16.20;11.95;;;14.60;99.90;;;;;;5036209;28;20485;-71
2023/05/25 02:22:12;;;;;;;15.60;11.15;;;14.60;99.90;;;;;;5068300;28;20029;-71
2023/05/25 02:24:37;;;;;;;21.88;13.10;;;14.60;99.90;;;;;;5035933;28;20509;-72
2023/05/25 02:27:04;;;;;;;16.05;12.38;;;14.50;99.90;;;;;;5036035;28;20017;-70
2023/05/25 02:29:30;;;;;;;17.63;11.85;;;14.50;99.90;;;;;;5039944;28;20026;-71
2023/05/25 02:31:56;;;;;;;14.30;11.13;;;14.40;99.90;;;;;;5038685;28;20032;-72
2023/05/25 02:34:21;;;;;;;14.85;11.90;;;14.40;99.90;;;;;;5038711;28;20081;-72
2023/05/25 02:36:47;;;;;;;19.90;12.10;;;14.30;99.90;;;;;;5039632;28;20041;-70
2023/05/25 02:39:13;;;;;;;20.42;13.38;;;14.30;99.90;;;;;;5039722;28;20025;-70
2023/05/25 02:41:38;;;;;;;18.90;12.88;;;14.30;99.90;;;;;;5039421;28;20045;-71
2023/05/25 02:44:04;;;;;;;17.27;13.88;;;14.30;99.90;;;;;;5039589;28;20060;-70
2023/05/25 02:46:32;;;;;;;16.48;11.90;;;14.20;99.90;;;;;;5039595;28;20104;-70
2023/05/25 02:48:58;;;;;;;18.33;12.02;;;14.20;99.90;;;;;;5039158;28;20021;-71
2023/05/25 02:51:24;;;;;;;19.65;12.52;;;14.10;99.90;;;;;;5039832;28;20478;-71
2023/05/25 02:53:50;;;;;;;21.55;13.02;;;14.10;99.90;;;;;;5039366;28;20555;-71
2023/05/25 02:56:16;;;;;;;19.77;13.70;;;14.10;99.90;;;;;;5039332;28;20428;-70
2023/05/25 02:58:42;;;;;;;20.30;14.10;;;14.10;99.90;;;;;;5039132;28;20065;-70
2023/05/25 03:01:09;;;;;;;16.98;11.98;;;14.00;99.90;;;;;;5037684;28;20021;-71
2023/05/25 03:03:35;;;;;;;21.13;13.70;;;14.00;99.90;;;;;;5039284;28;20021;-70
2023/05/25 03:06:02;;;;;;;19.67;13.10;;;14.00;99.90;;;;;;5038334;28;20010;-70
2023/05/25 03:08:29;;;;;;;17.85;12.52;;;14.00;99.90;;;;;;5039075;28;20029;-71
2023/05/25 03:10:55;;;;;;;24.73;13.10;;;14.00;99.90;;;;;;5037385;28;20029;-72
2023/05/25 03:13:21;;;;;;;17.95;12.63;;;14.00;99.90;;;;;;5039238;28;20562;-70
2023/05/25 03:15:46;;;;;;;20.30;12.25;;;13.90;99.90;;;;;;5037795;28;20010;-71
2023/05/25 03:18:12;;;;;;;20.15;12.77;;;13.90;99.90;;;;;;5038976;28;20433;-69
2023/05/25 03:20:37;;;;;;;20.83;13.63;;;13.90;99.90;;;;;;5038760;28;20580;-70
2023/05/25 03:23:03;;;;;;;19.35;13.20;;;13.90;99.90;;;;;;5037813;28;20061;-71
2023/05/25 03:25:29;;;;;;;21.17;12.77;;;13.90;99.90;;;;;;5038637;28;20096;-71
2023/05/25 03:27:55;;;;;;;18.52;12.52;;;13.80;99.90;;;;;;5038966;28;20394;-71
2023/05/25 03:30:22;;;;;;;14.43;12.35;;;13.80;99.90;;;;;;5070699;28;20021;-71
2023/05/25 03:32:47;;;;;;;19.45;12.63;;;13.80;99.90;;;;;;5038932;28;20033;-71
2023/05/25 03:35:13;;;;;;;18.88;13.05;;;13.80;99.90;;;;;;5038197;28;20512;-71
2023/05/25 03:37:39;;;;;;;22.13;12.55;;;13.80;99.90;;;;;;5038837;28;20120;-71
2023/05/25 03:40:05;;;;;;;18.60;12.15;;;13.70;99.90;;;;;;5038313;28;20029;-71
2023/05/25 03:42:31;;;;;;;16.13;11.05;;;13.70;99.90;;;;;;5070426;28;20040;-71
2023/05/25 03:44:56;;;;;;;21.77;12.82;;;13.70;99.90;;;;;;5041577;28;20425;-71
2023/05/25 03:47:22;;;;;;;14.50;12.52;;;13.70;99.90;;;;;;5038513;28;20032;-70
2023/05/25 03:49:48;;;;;;;21.98;13.35;;;13.70;99.90;;;;;;5038159;28;20017;-71
2023/05/25 03:52:13;;;;;;;19.50;12.75;;;13.60;99.90;;;;;;5038489;28;20033;-72
2023/05/25 03:54:39;;;;;;;18.63;12.93;;;13.60;99.90;;;;;;5038041;28;20017;-71
2023/05/25 03:57:05;;;;;;;23.88;12.95;;;13.60;99.90;;;;;;5069910;28;20616;-71
2023/05/25 03:59:31;;;;;;;17.33;12.43;;;13.60;99.90;;;;;;5037078;28;20025;-71
2023/05/25 04:01:56;;;;;;;20.95;13.52;;;13.60;99.90;;;;;;5038250;28;20080;-71
2023/05/25 04:04:22;;;;;;;17.60;12.75;;;13.60;99.90;;;;;;5037851;28;20010;-71
2023/05/25 04:06:47;;;;;;;21.75;13.85;;;13.50;99.90;;;;;;5038164;28;20029;-71
2023/05/25 04:09:16;;;;;;;17.10;11.75;;;13.50;99.90;;;;;;5037738;28;20045;-71
2023/05/25 04:11:43;;;;;;;18.08;11.88;;;13.50;99.90;;;;;;5037203;28;20393;-71
2023/05/25 04:14:09;;;;;;;19.63;11.75;;;13.50;99.90;;;;;;5037835;28;20053;-71
2023/05/25 04:16:34;;;;;;;20.55;13.45;;;13.50;99.90;;;;;;5070076;28;20037;-71
2023/05/25 04:19:00;;;;;;;21.10;13.70;;;13.40;99.90;;;;;;5037544;28;20044;-71
2023/05/25 04:21:26;;;;;;;23.92;13.65;;;13.40;99.90;;;;;;5037998;28;20026;-71
2023/05/25 04:23:51;;;;;;;20.23;13.98;;;13.40;99.90;;;;;;5036250;28;20225;-71
2023/05/25 04:26:18;;;;;;;17.83;12.85;;;13.40;99.90;;;;;;5037659;28;20029;-71
2023/05/25 04:28:44;;;;;;;18.58;13.48;;;13.40;99.90;;;;;;5037556;28;20098;-71
2023/05/25 04:31:12;;;;;;;18.27;13.05;;;13.40;99.90;;;;;;5037534;28;20079;-71
2023/05/25 04:33:38;;;;;;;21.55;12.65;;;13.40;99.90;;;;;;5036029;28;20448;-71
2023/05/25 04:36:09;;;;;;;21.00;11.35;;;13.40;99.90;;;;;;5069465;28;20057;-71
2023/05/25 04:38:36;;;;;;;16.65;11.98;;;13.40;99.90;;;;;;5038837;28;20029;-71
2023/05/25 04:41:02;;;;;;;20.75;13.50;;;13.40;99.90;;;;;;5031765;28;20022;-71
2023/05/25 04:43:28;;;;;;;19.65;12.38;;;13.40;99.90;;;;;;5037362;28;20378;-71
2023/05/25 04:45:55;;;;;;;18.15;12.68;;;13.40;99.90;;;;;;5037408;28;20481;-71
2023/05/25 04:48:21;;;;;;;19.63;12.88;;;13.30;99.90;;;;;;5035853;28;20021;-70
2023/05/25 04:50:47;;;;;;;18.25;14.07;;;13.40;99.90;;;;;;5036521;28;20018;-70
2023/05/25 04:53:12;;;;;;;18.33;11.90;;;13.40;99.90;;;;;;5037117;28;20018;-70
2023/05/25 04:55:38;;;;;;;17.33;12.88;;;13.40;99.90;;;;;;5036687;28;20378;-71
2023/05/25 04:58:04;;;;;;;18.23;13.43;;;13.40;99.90;;;;;;5035980;28;20512;-72
2023/05/25 05:00:30;;;;;;;24.17;12.13;;;13.40;99.90;;;;;;5037011;28;20104;-72
2023/05/25 05:02:57;;;;;;;17.75;11.75;;;13.40;99.90;;;;;;5037123;28;20028;-71
2023/05/25 05:05:23;;;;;;;19.70;12.18;;;13.50;99.90;;;;;;5037020;28;20033;-71
2023/05/25 05:07:49;;;;;;;17.00;11.50;;;13.50;99.90;;;;;;5035526;28;20124;-71
2023/05/25 05:10:14;;;;;;;15.85;11.48;;;13.50;99.90;;;;;;5035818;28;20045;-70
2023/05/25 05:12:40;;;;;;;22.92;13.02;;;13.60;99.90;;;;;;5036690;28;20040;-71
2023/05/25 05:15:06;;;;;;;16.80;12.75;;;13.60;99.90;;;;;;5037032;28;20409;-71
2023/05/25 05:17:32;;;;;;;14.32;11.13;;;13.70;99.90;;;;;;5035736;28;20052;-71
2023/05/25 05:19:58;;;;;;;19.38;12.55;;;13.70;99.90;;;;;;5027300;28;20026;-71
2023/05/25 05:22:24;;;;;;;29.27;12.32;;;13.80;99.90;;;;;;5033398;28;20028;-71
2023/05/25 05:24:50;;;;;;;12.88;11.45;;;13.80;99.90;;;;;;5036366;28;20082;-71
2023/05/25 05:27:15;;;;;;;22.00;13.30;;;13.90;99.90;;;;;;5036571;28;20071;-71
2023/05/25 05:29:41;;;;;;;18.00;12.30;;;13.90;99.90;;;;;;5025390;28;20069;-70
2023/05/25 05:32:07;;;;;;;18.52;10.85;;;13.90;99.90;;;;;;5027868;28;20427;-70
2023/05/25 05:34:33;;;;;;;16.60;10.70;;;14.00;99.90;;;;;;5030897;28;20030;-71
2023/05/25 05:36:59;;;;;;;20.23;10.85;;;14.00;99.90;;;;;;5036271;28;20057;-70
2023/05/25 05:39:26;;;;;;;17.35;11.07;;;14.10;99.90;;;;;;5036367;28;20029;-71
2023/05/25 05:41:52;;;;;;;19.33;11.25;;;14.10;99.90;;;;;;5036394;28;20063;-71
2023/05/25 05:44:20;;;;;;;16.02;12.70;;;14.10;99.90;;;;;;5068247;28;20030;-71
2023/05/25 05:46:46;;;;;;;17.48;11.57;;;14.20;99.90;;;;;;5036569;28;20105;-71
2023/05/25 05:49:11;;;;;;;27.83;14.18;;;14.30;99.90;;;;;;5036152;28;20088;-71
2023/05/25 05:51:37;;;;;;;16.25;10.13;;;14.40;99.90;;;;;;5034598;28;20022;-70
2023/05/25 05:54:03;;;;;;;18.90;11.63;;;14.40;99.90;;;;;;5067209;28;20498;-72
2023/05/25 05:56:29;;;;;;;17.58;11.63;;;14.50;99.90;;;;;;5035840;28;20497;-72
2023/05/25 05:58:54;;;;;;;14.48;10.35;;;14.60;99.90;;;;;;5036172;28;20029;-71
2023/05/25 06:01:20;;;;;;;15.25;9.68;;;14.60;99.90;;;;;;5037443;28;20017;-72
2023/05/25 06:03:47;;;;;;;16.13;10.00;;;14.60;99.90;;;;;;5039996;28;20393;-72
2023/05/25 06:06:13;;;;;;;19.17;10.07;;;14.60;99.90;;;;;;5039008;28;20496;-71
2023/05/25 06:08:42;;;;;;;13.55;7.95;;;14.70;99.90;;;;;;5039584;28;20053;-70
2023/05/25 06:11:08;;;;;;;17.45;8.95;;;14.70;99.90;;;;;;5031556;28;20026;-71
2023/05/25 06:13:34;;;;;;;15.98;9.88;;;14.80;99.90;;;;;;5039719;28;20496;-72
2023/05/25 06:15:59;;;;;;;18.63;8.73;;;14.80;99.90;;;;;;5040096;28;20021;-71
2023/05/25 06:18:25;;;;;;;14.57;9.38;;;14.90;99.90;;;;;;5039424;28;20425;-72
2023/05/25 06:20:51;;;;;;;21.38;8.55;;;15.00;99.90;;;;;;5039923;28;20021;-71
2023/05/25 06:23:17;;;;;;;11.75;8.93;;;15.10;99.90;;;;;;5039554;28;20417;-71
2023/05/25 06:25:44;;;;;;;11.73;7.13;;;15.30;99.90;;;;;;5039393;28;20048;-71
2023/05/25 06:28:10;;;;;;;16.52;9.10;;;15.30;99.90;;;;;;5039337;28;20143;-70
2023/05/25 06:30:35;;;;;;;19.23;10.25;;;15.40;99.90;;;;;;5039747;28;20056;-70
2023/05/25 06:33:01;;;;;;;15.20;9.38;;;15.50;99.90;;;;;;5039312;28;20025;-71
2023/05/25 06:35:27;;;;;;;11.30;6.85;;;15.50;99.90;;;;;;5039154;28;20045;-70
2023/05/25 06:37:53;;;;;;;12.60;7.68;;;15.40;99.90;;;;;;5039334;28;20036;-71
2023/05/25 06:40:18;;;;;;;15.82;8.48;;;15.40;99.90;;;;;;5038744;28;20060;-70
2023/05/25 06:42:44;;;;;;;15.57;7.63;;;15.40;99.90;;;;;;5037291;28;20034;-71
2023/05/25 06:45:10;;;;;;;13.60;7.97;;;15.30;99.90;;;;;;5039028;28;20075;-70
2023/05/25 06:47:36;;;;;;;14.18;7.85;;;15.40;99.90;;;;;;5037192;28;20021;-73
2023/05/25 06:50:03;;;;;;;18.27;8.43;;;15.40;99.90;;;;;;5038248;28;20033;-70
2023/05/25 06:52:29;;;;;;;14.18;7.80;;;15.40;99.90;;;;;;5038075;28;20080;-71
2023/05/25 06:54:55;;;;;;;17.25;7.80;;;15.50;99.90;;;;;;5038644;28;20021;-71
2023/05/25 06:57:22;;;;;;;12.18;7.05;;;15.40;99.90;;;;;;5036123;28;20527;-70
2023/05/25 06:59:47;;;;;;;16.98;9.13;;;15.30;99.90;;;;;;5036436;28;20029;-72
2023/05/25 07:02:13;;;;;;;21.85;9.18;;;15.30;99.90;;;;;;5039085;28;20022;-70
2023/05/25 07:04:38;;;;;;;16.00;8.05;;;15.30;99.90;;;;;;5038436;28;20083;-71
2023/05/25 07:07:05;;;;;;;16.48;8.63;;;15.20;99.90;;;;;;5039149;28;20068;-71
2023/05/25 07:09:31;;;;;;;11.68;7.28;;;15.30;99.90;;;;;;5030914;28;20502;-71
2023/05/25 07:11:57;;;;;;;13.95;8.75;;;15.30;99.90;;;;;;5065610;28;20103;-71
2023/05/25 07:14:22;;;;;;;16.58;8.23;;;15.40;99.90;;;;;;5038889;28;20561;-70
2023/05/25 07:16:48;;;;;;;11.50;7.65;;;15.40;99.90;;;;;;5037851;28;20052;-71
2023/05/25 07:19:14;;;;;;;12.00;7.40;;;15.40;99.90;;;;;;5038927;28;20034;-70
2023/05/25 07:21:39;;;;;;;11.10;7.18;;;15.40;99.90;;;;;;5037911;28;20033;-71
2023/05/25 07:24:05;;;;;;;19.48;9.13;;;15.40;99.90;;;;;;5037379;28;20478;-71
2023/05/25 07:26:32;;;;;;;14.38;8.00;;;15.40;99.90;;;;;;5036989;28;20449;-70
2023/05/25 07:28:57;;;;;;;19.23;8.63;;;15.60;99.90;;;;;;5038856;28;20032;-70
2023/05/25 07:31:23;;;;;;;14.18;7.30;;;15.60;99.90;;;;;;5038509;28;20025;-71
2023/05/25 07:33:49;;;;;;;14.23;7.50;;;15.70;99.90;;;;;;5038690;28;20025;-70
2023/05/25 07:36:15;;;;;;;10.10;7.70;;;15.80;99.90;;;;;;5036454;28;20413;-71
2023/05/25 07:38:41;;;;;;;16.80;7.15;;;15.80;99.90;;;;;;5038552;28;20059;-70
2023/05/25 07:41:07;;;;;;;17.98;7.82;;;15.90;99.90;;;;;;5037967;28;20017;-71
2023/05/25 07:43:33;;;;;;;24.35;7.80;;;16.00;99.90;;;;;;5038693;28;20026;-71
2023/05/25 07:46:03;;;;;;;18.08;7.63;;;16.10;99.90;;;;;;5037432;28;20024;-70
2023/05/25 07:48:28;;;;;;;10.35;7.85;;;16.00;99.90;;;;;;5037271;28;20049;-70
2023/05/25 07:50:54;;;;;;;13.18;6.80;;;16.10;99.90;;;;;;5038252;28;20021;-70
2023/05/25 07:53:20;;;;;;;17.05;8.13;;;16.00;99.90;;;;;;5038532;28;20504;-70
2023/05/25 07:55:46;;;;;;;13.15;7.18;;;16.00;99.90;;;;;;5037954;28;20051;-70
2023/05/25 07:58:11;;;;;;;20.23;9.10;;;16.10;99.90;;;;;;5038396;28;20025;-70
2023/05/25 08:00:37;;;;;;;19.15;7.50;;;16.10;99.90;;;;;;5037984;28;20060;-70
2023/05/25 08:03:03;;;;;;;17.48;7.38;;;16.20;99.90;;;;;;5035457;28;20155;-70
2023/05/25 08:05:29;;;;;;;11.43;6.88;;;16.20;99.90;;;;;;5038064;28;20022;-70
2023/05/25 08:07:54;;;;;;;10.65;6.10;;;16.30;99.90;;;;;;5038209;28;20037;-71
2023/05/25 08:10:20;;;;;;;12.63;7.53;;;16.30;99.90;;;;;;5037562;28;20109;-71
2023/05/25 08:12:46;;;;;;;9.00;6.47;;;16.30;99.90;;;;;;5036796;28;20040;-71
2023/05/25 08:15:12;;;;;;;15.50;6.45;;;16.20;99.90;;;;;;5035836;28;20041;-70
2023/05/25 08:17:38;;;;;;;23.98;7.20;;;16.30;99.90;;;;;;5037833;28;20040;-71
2023/05/25 08:20:07;;;;;;;17.10;7.45;;;16.30;99.90;;;;;;5037540;28;20025;-71
2023/05/25 09:57:18;;;;;;;9.23;4.47;;;18.80;99.90;;;;;;4977893;28;20052;-67
2023/05/25 09:59:45;;;;;;;8.27;4.50;;;18.90;99.90;;;;;;5000425;28;20456;-66
2023/05/25 10:02:12;;;;;;;8.30;4.05;;;19.00;99.90;;;;;;4999242;28;20102;-67
2023/05/25 10:04:38;;;;;;;8.98;4.80;;;19.10;99.90;;;;;;4999932;28;20030;-67
2023/05/25 10:07:05;;;;;;;7.53;3.85;;;19.20;99.90;;;;;;5000377;28;20057;-67
2023/05/25 10:09:40;;;;;;;6.63;2.60;;;19.30;99.90;;;;;;4981727;28;20038;-67
2023/05/25 10:12:06;;;;;;;5.88;3.45;;;19.40;99.90;;;;;;4984138;28;20478;-67
2023/05/25 10:14:36;;;;;;;7.60;3.70;;;19.30;99.90;;;;;;4999875;28;20061;-67
2023/05/25 10:17:05;;;;;;;11.25;3.92;;;19.50;99.90;;;;;;4998034;28;20030;-67
2023/05/25 10:19:44;;;;;;;6.18;3.25;;;19.70;99.90;;;;;;4999605;28;20034;-67
2023/05/25 10:22:22;;;;;;;6.68;3.67;;;19.60;99.90;;;;;;4998495;28;20118;-67
2023/05/25 10:25:23;;;;;;;6.72;3.58;;;19.50;99.90;;;;;;4982257;28;20405;-67
2023/05/25 10:27:58;;;;;;;;;;;19.60;99.90;;;;;;4999279;28;20522;-68
2023/05/25 10:30:25;;;;;;;7.05;3.13;;;19.60;99.90;;;;;;4999791;28;20361;-67
2023/05/25 10:32:52;;;;;;;6.22;3.55;;;19.60;99.90;;;;;;4999938;28;20050;-68
2023/05/25 10:35:18;;;;;;;9.85;3.65;;;19.50;99.90;;;;;;5000794;28;20453;-67
2023/05/25 10:37:44;;;;;;;7.90;3.72;;;19.50;99.90;;;;;;4999348;28;20026;-68
2023/05/25 10:40:12;;;;;;;6.35;3.58;;;19.60;99.90;;;;;;5001655;28;20030;-68
2023/05/25 10:42:39;;;;;;;8.30;3.60;;;19.80;99.90;;;;;;4999948;28;20478;-68
2023/05/25 10:45:07;;;;;;;9.90;3.58;;;19.90;99.90;;;;;;4999214;28;20030;-67
2023/05/25 10:47:40;;;;;;;7.82;3.88;;;19.90;99.90;;;;;;4999773;28;20019;-68
2023/05/25 10:50:25;;;;;;;11.18;3.53;;;20.10;99.90;;;;;;4998920;28;20026;-68
2023/05/25 10:53:19;;;;;;;5.90;3.50;;;20.20;99.90;;;;;;4999029;28;20061;-68
2023/05/25 10:55:54;;;;;;;6.50;3.55;;;20.60;99.90;;;;;;4991097;28;20069;-67
2023/05/25 10:58:25;;;;;;;9.35;3.47;;;20.90;99.90;;;;;;4997679;28;20033;-68
2023/05/25 11:01:09;;;;;;;5.93;3.08;;;20.90;99.90;;;;;;4998930;28;20018;-67
2023/05/25 11:03:54;;;;;;;5.80;3.03;;;21.00;99.90;;;;;;4998768;28;20046;-68
2023/05/25 11:06:44;;;;;;;7.05;3.15;;;21.20;99.90;;;;;;4998872;28;20029;-68
2023/05/25 11:09:24;;;;;;;6.60;3.50;;;20.90;99.90;;;;;;4977446;28;20048;-68
2023/05/25 11:11:51;;;;;;;13.65;4.18;;;20.60;99.90;;;;;;4998196;28;20261;-68
2023/05/25 11:14:26;;;;;;;6.78;3.53;;;20.50;99.90;;;;;;4999670;28;20026;-68
2023/05/25 11:17:09;;;;;;;6.40;3.35;;;21.00;99.90;;;;;;4997819;28;20018;-68
2023/05/25 11:19:47;;;;;;;6.10;3.45;;;21.40;99.90;;;;;;5000231;28;20027;-68
2023/05/25 11:22:19;;;;;;;7.28;3.38;;;21.80;99.90;;;;;;4982918;28;20430;-68
2023/05/25 11:24:46;;;;;;;7.30;3.58;;;21.90;99.90;;;;;;4998310;28;20087;-68
2023/05/25 11:27:13;;;;;;;5.93;3.00;;;21.70;99.90;;;;;;4998451;28;20019;-68
2023/05/25 11:29:39;;;;;;;7.97;3.10;;;21.40;99.90;;;;;;4998200;28;20026;-68
2023/05/25 11:32:14;;;;;;;5.53;3.08;;;21.20;99.90;;;;;;4999481;28;20062;-68
2023/05/25 11:34:45;;;;;;;6.78;3.20;;;20.90;99.90;;;;;;4995706;28;20022;-68
2023/05/25 11:37:14;;;;;;;11.95;3.60;;;20.90;99.90;;;;;;5000271;28;20025;-68
2023/05/25 11:39:41;;;;;;;7.28;3.60;;;21.10;99.90;;;;;;4998953;28;20022;-68
2023/05/25 11:42:10;;;;;;;7.60;3.58;;;21.00;99.90;;;;;;4998374;28;20030;-68
2023/05/25 11:44:36;;;;;;;6.18;3.45;;;20.90;99.90;;;;;;4998301;28;20065;-69
2023/05/25 11:47:13;;;;;;;6.20;3.88;;;21.00;99.90;;;;;;4998222;28;20402;-69
2023/05/25 11:49:46;;;;;;;9.52;4.20;;;21.00;99.90;;;;;;4998416;28;20157;-69
2023/05/25 11:52:20;;;;;;;9.20;3.47;;;20.90;99.90;;;;;;4994387;28;20058;-68
2023/05/25 11:54:46;;;;;;;7.82;3.85;;;21.00;99.90;;;;;;4998659;28;20093;-68
2023/05/25 11:57:17;;;;;;;8.38;4.50;;;21.10;99.90;;;;;;4982021;28;20506;-68
2023/05/25 11:59:50;;;;;;;8.48;3.90;;;21.30;99.90;;;;;;4995563;28;20038;-68
2023/05/25 12:02:17;;;;;;;6.53;4.35;;;21.70;99.90;;;;;;4998035;28;20386;-68
2023/05/25 12:04:53;;;;;;;10.70;3.28;;;22.00;99.90;;;;;;4997764;28;20371;-69
2023/05/25 12:07:18;;;;;;;7.72;3.38;;;22.20;99.90;;;;;;4998394;28;20045;-69
2023/05/25 12:09:44;;;;;;;8.70;3.75;;;22.40;99.90;;;;;;5001291;28;20023;-69
2023/05/25 12:12:10;;;;;;;6.20;3.15;;;22.60;99.90;;;;;;4998986;28;20034;-69
2023/05/25 12:14:49;;;;;;;9.68;3.58;;;22.50;99.90;;;;;;4998638;28;20030;-69
2023/05/25 12:17:17;;;;;;;6.07;3.30;;;22.70;99.90;;;;;;5002088;28;20027;-69
2023/05/25 12:19:43;;;;;;;9.20;3.35;;;22.40;99.90;;;;;;4999263;28;20022;-68
2023/05/25 12:22:10;;;;;;;6.95;3.45;;;22.20;99.90;;;;;;4997614;28;20021;-68
2023/05/25 12:24:36;;;;;;;7.03;3.38;;;21.90;99.90;;;;;;4997414;28;20025;-69
2023/05/25 12:27:04;;;;;;;8.90;3.72;;;21.50;99.90;;;;;;4997472;28;20397;-69
2023/05/25 12:29:30;;;;;;;7.15;3.60;;;21.40;99.90;;;;;;4998539;28;20038;-69
2023/05/25 12:35:18;;;;;;;6.85;3.50;;;21.50;99.90;;;;;;4994293;28;20525;-69
2023/05/25 12:37:45;;;;;;;5.75;3.60;;;21.80;99.90;;;;;;4998025;28;20026;-68
2023/05/25 12:40:19;;;;;;;7.65;4.05;;;21.80;99.90;;;;;;4993493;28;20031;-68
2023/05/25 12:42:45;;;;;;;13.95;3.95;;;21.90;99.90;;;;;;4991973;28;20272;-69
2023/05/25 12:45:10;;;;;;;7.80;4.53;;;22.10;99.90;;;;;;4996629;28;20026;-69
2023/05/25 12:47:36;;;;;;;4.95;3.72;;;22.40;99.90;;;;;;4996160;28;20057;-69
2023/05/25 12:50:14;;;;;;;8.27;3.78;;;22.70;99.90;;;;;;4979294;28;20034;-69
2023/05/25 12:52:42;;;;;;;7.40;3.50;;;22.80;99.90;;;;;;4997033;28;20049;-68
2023/05/25 12:55:28;;;;;;;8.25;3.10;;;22.40;99.90;;;;;;4992319;28;20643;-70
2023/05/25 12:58:00;;;;;;;10.05;3.78;;;22.60;99.90;;;;;;4994924;28;20061;-69
2023/05/25 13:00:37;;;;;;;6.35;3.05;;;22.80;99.90;;;;;;4980078;28;20550;-69
2023/05/25 13:03:06;;;;;;;10.63;3.45;;;22.70;99.90;;;;;;5000058;28;20033;-68
2023/05/25 13:05:34;;;;;;;8.85;3.47;;;22.70;99.90;;;;;;4980796;28;20065;-68
2023/05/25 13:08:00;;;;;;;5.38;3.17;;;22.50;99.90;;;;;;4997270;28;20026;-73
2023/05/25 13:10:27;;;;;;;11.85;3.78;;;22.10;99.90;;;;;;5000408;28;20022;-74
2023/05/25 13:12:55;;;;;;;6.32;3.03;;;21.80;99.90;;;;;;4993256;28;20026;-73
2023/05/25 13:15:21;;;;;;;6.15;3.60;;;21.50;99.90;;;;;;4995592;28;20505;-72
2023/05/25 13:17:51;;;;;;;9.60;3.90;;;21.40;99.90;;;;;;4997538;28;20030;-72
2023/05/25 13:20:18;;;;;;;9.93;3.73;;;21.50;99.90;;;;;;4996297;28;20490;-72
2023/05/25 13:22:47;;;;;;;7.32;3.30;;;21.50;99.90;;;;;;4979111;28;20066;-73
2023/05/25 13:25:13;;;;;;;10.38;3.17;;;21.70;99.90;;;;;;4997036;28;20027;-73
2023/05/25 13:27:44;;;;;;;5.57;3.45;;;21.90;99.80;;;;;;4995702;28;20019;-73
2023/05/25 13:30:11;;;;;;;7.47;3.50;;;22.30;99.90;;;;;;4997210;28;20046;-73
2023/05/25 13:32:37;;;;;;;4.97;3.15;;;22.40;99.30;;;;;;4996300;28;20019;-73
2023/05/25 13:35:05;;;;;;;10.15;3.80;;;22.50;99.30;;;;;;4996518;28;20026;-73
2023/05/25 13:37:32;;;;;;;7.18;4.05;;;22.70;99.90;;;;;;4979271;28;20030;-71
2023/05/25 13:39:59;;;;;;;12.98;3.95;;;22.90;99.90;;;;;;4996560;28;20069;-72
2023/05/25 13:42:24;;;;;;;8.65;3.45;;;23.00;98.10;;;;;;4997231;28;20027;-73
2023/05/25 13:44:51;;;;;;;5.95;3.60;;;22.60;99.10;;;;;;4999177;28;20014;-72
2023/05/25 13:47:17;;;;;;;6.65;3.25;;;22.60;98.30;;;;;;4998597;28;20053;-72
2023/05/25 13:49:43;;;;;;;7.28;3.70;;;23.00;99.60;;;;;;4993136;28;20034;-73
2023/05/25 13:52:09;;;;;;;5.82;3.13;;;23.10;99.80;;;;;;4998569;28;20172;-73
2023/05/25 13:54:36;;;;;;;7.75;3.92;;;23.30;99.90;;;;;;4996063;28;20026;-73
2023/05/25 13:57:01;;;;;;;6.30;3.42;;;23.40;99.90;;;;;;4997084;28;20098;-72
2023/05/25 13:59:27;;;;;;;7.60;3.55;;;23.70;99.90;;;;;;4997268;28;20026;-73
2023/05/25 14:01:53;;;;;;;8.43;3.30;;;24.00;96.40;;;;;;4996010;28;20018;-73
2023/05/25 14:04:18;;;;;;;5.45;3.33;;;23.80;96.70;;;;;;4996650;28;20046;-73
2023/05/25 14:06:45;;;;;;;6.80;3.33;;;23.70;96.70;;;;;;4977469;28;20080;-72
2023/05/25 14:09:10;;;;;;;7.47;3.75;;;23.10;98.40;;;;;;4996453;28;20026;-72
2023/05/25 14:11:36;;;;;;;8.63;3.47;;;22.60;98.40;;;;;;4998140;28;20156;-72
2023/05/25 14:14:06;;;;;;;4.60;3.20;;;22.50;97.30;;;;;;4998086;28;20062;-73
2023/05/25 14:16:32;;;;;;;5.35;3.20;;;22.60;98.90;;;;;;4996454;28;20034;-73